sensor_id;sensor_type;location;lat;lon;timestamp;P1;durP1;ratioP1;P2;durP2;ratioP2
18449;SDS011;9354;50.194;7.690;2022-08-19T00:00:22;21.97;;;13.93;;
18449;SDS011;9354;50.194;7.690;2022-08-19T00:02:49;22.90;;;14.63;;
18449;SDS011;9354;50.194;7.690;2022-08-19T00:05:17;24.77;;;15.37;;
18449;SDS011;9354;50.194;7.690;2022-08-19T00:07:45;21.93;;;14.43;;
18449;SDS011;9354;50.194;7.690;2022-08-19T00:10:13;21.63;;;14.03;;
18449;SDS011;9354;50.194;7.690;2022-08-19T00:12:42;24.53;;;15.13;;
18449;SDS011;9354;50.194;7.690;2022-08-19T00:15:11;22.87;;;14.17;;
18449;SDS011;9354;50.194;7.690;2022-08-19T00:17:43;21.87;;;14.27;;
18449;SDS011;9354;50.194;7.690;2022-08-19T00:20:12;24.93;;;15.10;;
18449;SDS011;9354;50.194;7.690;2022-08-19T00:22:42;22.83;;;14.70;;
18449;SDS011;9354;50.194;7.690;2022-08-19T00:25:09;26.10;;;14.60;;
18449;SDS011;9354;50.194;7.690;2022-08-19T00:27:37;22.73;;;14.23;;
18449;SDS011;9354;50.194;7.690;2022-08-19T00:30:05;23.63;;;14.73;;
18449;SDS011;9354;50.194;7.690;2022-08-19T00:32:35;23.17;;;14.70;;
18449;SDS011;9354;50.194;7.690;2022-08-19T00:35:05;24.87;;;14.20;;
18449;SDS011;9354;50.194;7.690;2022-08-19T00:37:33;26.20;;;15.50;;
18449;SDS011;9354;50.194;7.690;2022-08-19T00:40:01;21.67;;;14.80;;
18449;SDS011;9354;50.194;7.690;2022-08-19T00:42:29;22.70;;;15.53;;
18449;SDS011;9354;50.194;7.690;2022-08-19T00:44:57;24.13;;;15.40;;
18449;SDS011;9354;50.194;7.690;2022-08-19T00:47:24;23.60;;;14.30;;
18449;SDS011;9354;50.194;7.690;2022-08-19T00:49:53;23.73;;;14.87;;
18449;SDS011;9354;50.194;7.690;2022-08-19T00:52:24;23.70;;;15.07;;
18449;SDS011;9354;50.194;7.690;2022-08-19T00:54:56;22.43;;;14.50;;
18449;SDS011;9354;50.194;7.690;2022-08-19T00:57:26;19.20;;;13.63;;
18449;SDS011;9354;50.194;7.690;2022-08-19T00:59:56;25.30;;;14.03;;
18449;SDS011;9354;50.194;7.690;2022-08-19T01:02:25;25.10;;;14.23;;
18449;SDS011;9354;50.194;7.690;2022-08-19T01:04:54;23.87;;;14.47;;
18449;SDS011;9354;50.194;7.690;2022-08-19T01:07:22;22.37;;;13.20;;
18449;SDS011;9354;50.194;7.690;2022-08-19T01:09:51;20.97;;;12.90;;
18449;SDS011;9354;50.194;7.690;2022-08-19T01:12:18;22.63;;;13.83;;
18449;SDS011;9354;50.194;7.690;2022-08-19T01:14:47;22.87;;;13.60;;
18449;SDS011;9354;50.194;7.690;2022-08-19T01:17:15;19.03;;;13.03;;
18449;SDS011;9354;50.194;7.690;2022-08-19T01:19:43;22.50;;;13.50;;
18449;SDS011;9354;50.194;7.690;2022-08-19T01:22:14;20.17;;;13.47;;
18449;SDS011;9354;50.194;7.690;2022-08-19T01:24:47;22.27;;;14.13;;
18449;SDS011;9354;50.194;7.690;2022-08-19T01:27:15;27.70;;;14.53;;
18449;SDS011;9354;50.194;7.690;2022-08-19T01:29:43;22.10;;;12.90;;
18449;SDS011;9354;50.194;7.690;2022-08-19T01:32:12;19.63;;;13.00;;
18449;SDS011;9354;50.194;7.690;2022-08-19T01:34:42;25.50;;;14.33;;
18449;SDS011;9354;50.194;7.690;2022-08-19T01:37:12;23.93;;;14.87;;
18449;SDS011;9354;50.194;7.690;2022-08-19T01:39:41;21.20;;;13.73;;
18449;SDS011;9354;50.194;7.690;2022-08-19T01:42:10;20.50;;;13.67;;
18449;SDS011;9354;50.194;7.690;2022-08-19T01:44:38;21.20;;;14.10;;
18449;SDS011;9354;50.194;7.690;2022-08-19T01:47:06;25.13;;;14.50;;
18449;SDS011;9354;50.194;7.690;2022-08-19T01:49:35;21.97;;;13.30;;
18449;SDS011;9354;50.194;7.690;2022-08-19T01:52:03;20.33;;;13.40;;
18449;SDS011;9354;50.194;7.690;2022-08-19T01:54:31;21.47;;;13.97;;
18449;SDS011;9354;50.194;7.690;2022-08-19T01:56:59;21.00;;;14.10;;
18449;SDS011;9354;50.194;7.690;2022-08-19T01:59:33;22.10;;;13.90;;
18449;SDS011;9354;50.194;7.690;2022-08-19T02:02:02;18.33;;;12.63;;
18449;SDS011;9354;50.194;7.690;2022-08-19T02:04:32;22.77;;;12.30;;
18449;SDS011;9354;50.194;7.690;2022-08-19T02:07:00;21.77;;;13.10;;
18449;SDS011;9354;50.194;7.690;2022-08-19T02:09:28;23.17;;;13.50;;
18449;SDS011;9354;50.194;7.690;2022-08-19T02:11:56;18.73;;;11.13;;
18449;SDS011;9354;50.194;7.690;2022-08-19T02:14:24;17.57;;;11.70;;
18449;SDS011;9354;50.194;7.690;2022-08-19T02:16:52;18.93;;;11.83;;
18449;SDS011;9354;50.194;7.690;2022-08-19T02:19:20;23.23;;;10.40;;
18449;SDS011;9354;50.194;7.690;2022-08-19T02:21:47;17.83;;;11.03;;
18449;SDS011;9354;50.194;7.690;2022-08-19T02:24:15;17.17;;;10.23;;
18449;SDS011;9354;50.194;7.690;2022-08-19T02:26:42;16.33;;;9.77;;
18449;SDS011;9354;50.194;7.690;2022-08-19T02:29:10;15.93;;;9.70;;
18449;SDS011;9354;50.194;7.690;2022-08-19T02:31:37;15.30;;;10.27;;
18449;SDS011;9354;50.194;7.690;2022-08-19T02:34:06;18.83;;;11.73;;
18449;SDS011;9354;50.194;7.690;2022-08-19T02:36:33;21.40;;;11.50;;
18449;SDS011;9354;50.194;7.690;2022-08-19T02:39:01;18.13;;;10.70;;
18449;SDS011;9354;50.194;7.690;2022-08-19T02:41:29;18.73;;;11.07;;
18449;SDS011;9354;50.194;7.690;2022-08-19T02:43:59;19.57;;;10.40;;
18449;SDS011;9354;50.194;7.690;2022-08-19T02:46:28;18.60;;;10.47;;
18449;SDS011;9354;50.194;7.690;2022-08-19T02:48:57;16.23;;;9.63;;
18449;SDS011;9354;50.194;7.690;2022-08-19T02:51:29;17.73;;;10.33;;
18449;SDS011;9354;50.194;7.690;2022-08-19T02:53:58;16.53;;;9.57;;
18449;SDS011;9354;50.194;7.690;2022-08-19T02:56:26;16.60;;;9.80;;
18449;SDS011;9354;50.194;7.690;2022-08-19T02:58:54;15.87;;;10.60;;
18449;SDS011;9354;50.194;7.690;2022-08-19T03:01:23;13.83;;;9.47;;
18449;SDS011;9354;50.194;7.690;2022-08-19T03:03:52;21.13;;;11.00;;
18449;SDS011;9354;50.194;7.690;2022-08-19T03:06:20;19.17;;;10.60;;
18449;SDS011;9354;50.194;7.690;2022-08-19T03:08:49;20.37;;;11.80;;
18449;SDS011;9354;50.194;7.690;2022-08-19T03:11:18;19.70;;;11.00;;
18449;SDS011;9354;50.194;7.690;2022-08-19T03:13:47;20.27;;;12.07;;
18449;SDS011;9354;50.194;7.690;2022-08-19T03:16:16;22.83;;;11.40;;
18449;SDS011;9354;50.194;7.690;2022-08-19T03:18:44;20.60;;;12.37;;
18449;SDS011;9354;50.194;7.690;2022-08-19T03:21:14;21.87;;;11.57;;
18449;SDS011;9354;50.194;7.690;2022-08-19T03:23:42;21.90;;;10.93;;
18449;SDS011;9354;50.194;7.690;2022-08-19T03:26:11;17.73;;;10.60;;
18449;SDS011;9354;50.194;7.690;2022-08-19T03:28:40;20.23;;;11.57;;
18449;SDS011;9354;50.194;7.690;2022-08-19T03:31:09;20.27;;;12.63;;
18449;SDS011;9354;50.194;7.690;2022-08-19T03:33:40;20.93;;;12.27;;
18449;SDS011;9354;50.194;7.690;2022-08-19T03:36:08;19.00;;;12.23;;
18449;SDS011;9354;50.194;7.690;2022-08-19T03:38:38;22.97;;;12.67;;
18449;SDS011;9354;50.194;7.690;2022-08-19T03:41:11;24.80;;;12.90;;
18449;SDS011;9354;50.194;7.690;2022-08-19T03:43:41;20.60;;;12.23;;
18449;SDS011;9354;50.194;7.690;2022-08-19T03:46:11;18.77;;;12.30;;
18449;SDS011;9354;50.194;7.690;2022-08-19T03:48:40;19.30;;;11.80;;
18449;SDS011;9354;50.194;7.690;2022-08-19T03:51:15;19.47;;;12.30;;
18449;SDS011;9354;50.194;7.690;2022-08-19T03:53:44;22.90;;;12.70;;
18449;SDS011;9354;50.194;7.690;2022-08-19T03:56:14;23.27;;;13.67;;
18449;SDS011;9354;50.194;7.690;2022-08-19T03:58:41;23.40;;;12.20;;
18449;SDS011;9354;50.194;7.690;2022-08-19T04:01:10;21.17;;;12.93;;
18449;SDS011;9354;50.194;7.690;2022-08-19T04:03:41;20.67;;;13.53;;
18449;SDS011;9354;50.194;7.690;2022-08-19T04:06:09;23.63;;;13.07;;
18449;SDS011;9354;50.194;7.690;2022-08-19T04:08:38;26.73;;;13.43;;
18449;SDS011;9354;50.194;7.690;2022-08-19T04:11:06;28.07;;;14.37;;
18449;SDS011;9354;50.194;7.690;2022-08-19T04:13:36;25.17;;;13.70;;
18449;SDS011;9354;50.194;7.690;2022-08-19T04:16:03;24.97;;;14.17;;
18449;SDS011;9354;50.194;7.690;2022-08-19T04:18:32;23.23;;;13.47;;
18449;SDS011;9354;50.194;7.690;2022-08-19T04:21:00;23.73;;;13.80;;
18449;SDS011;9354;50.194;7.690;2022-08-19T04:23:27;23.20;;;13.77;;
18449;SDS011;9354;50.194;7.690;2022-08-19T04:25:55;26.33;;;14.33;;
18449;SDS011;9354;50.194;7.690;2022-08-19T04:28:23;21.47;;;13.97;;
18449;SDS011;9354;50.194;7.690;2022-08-19T04:30:54;22.90;;;13.60;;
18449;SDS011;9354;50.194;7.690;2022-08-19T04:33:23;24.47;;;14.47;;
18449;SDS011;9354;50.194;7.690;2022-08-19T04:35:52;21.17;;;13.63;;
18449;SDS011;9354;50.194;7.690;2022-08-19T04:38:20;27.40;;;14.77;;
18449;SDS011;9354;50.194;7.690;2022-08-19T04:40:49;23.73;;;13.90;;
18449;SDS011;9354;50.194;7.690;2022-08-19T04:43:36;26.73;;;14.07;;
18449;SDS011;9354;50.194;7.690;2022-08-19T04:46:07;25.37;;;13.67;;
18449;SDS011;9354;50.194;7.690;2022-08-19T04:48:35;25.17;;;14.67;;
18449;SDS011;9354;50.194;7.690;2022-08-19T04:51:06;27.03;;;14.70;;
18449;SDS011;9354;50.194;7.690;2022-08-19T04:53:36;21.97;;;14.10;;
18449;SDS011;9354;50.194;7.690;2022-08-19T04:56:04;26.83;;;13.90;;
18449;SDS011;9354;50.194;7.690;2022-08-19T04:58:34;23.10;;;14.07;;
18449;SDS011;9354;50.194;7.690;2022-08-19T05:01:02;27.70;;;14.53;;
18449;SDS011;9354;50.194;7.690;2022-08-19T05:03:31;24.00;;;14.67;;
18449;SDS011;9354;50.194;7.690;2022-08-19T05:06:03;28.53;;;14.40;;
18449;SDS011;9354;50.194;7.690;2022-08-19T05:08:33;22.40;;;14.90;;
18449;SDS011;9354;50.194;7.690;2022-08-19T05:11:06;29.57;;;14.97;;
18449;SDS011;9354;50.194;7.690;2022-08-19T05:13:36;24.87;;;14.37;;
18449;SDS011;9354;50.194;7.690;2022-08-19T05:16:04;24.27;;;13.40;;
18449;SDS011;9354;50.194;7.690;2022-08-19T05:18:33;26.63;;;14.80;;
18449;SDS011;9354;50.194;7.690;2022-08-19T05:21:18;25.43;;;14.93;;
18449;SDS011;9354;50.194;7.690;2022-08-19T05:24:04;26.47;;;14.53;;
18449;SDS011;9354;50.194;7.690;2022-08-19T05:26:34;26.47;;;14.40;;
18449;SDS011;9354;50.194;7.690;2022-08-19T05:29:01;26.90;;;14.53;;
18449;SDS011;9354;50.194;7.690;2022-08-19T05:31:29;24.53;;;15.27;;
18449;SDS011;9354;50.194;7.690;2022-08-19T05:33:59;29.83;;;15.37;;
18449;SDS011;9354;50.194;7.690;2022-08-19T05:36:27;25.90;;;14.87;;
18449;SDS011;9354;50.194;7.690;2022-08-19T05:39:00;21.90;;;14.57;;
18449;SDS011;9354;50.194;7.690;2022-08-19T05:41:28;27.57;;;14.73;;
18449;SDS011;9354;50.194;7.690;2022-08-19T05:43:56;25.83;;;14.87;;
18449;SDS011;9354;50.194;7.690;2022-08-19T05:46:23;24.83;;;14.83;;
18449;SDS011;9354;50.194;7.690;2022-08-19T05:48:51;25.73;;;15.30;;
18449;SDS011;9354;50.194;7.690;2022-08-19T05:51:23;26.00;;;14.57;;
18449;SDS011;9354;50.194;7.690;2022-08-19T05:53:51;30.43;;;14.20;;
18449;SDS011;9354;50.194;7.690;2022-08-19T05:56:18;26.53;;;14.93;;
18449;SDS011;9354;50.194;7.690;2022-08-19T05:58:46;25.20;;;15.23;;
18449;SDS011;9354;50.194;7.690;2022-08-19T06:01:14;24.27;;;14.80;;
18449;SDS011;9354;50.194;7.690;2022-08-19T06:03:43;24.67;;;15.17;;
18449;SDS011;9354;50.194;7.690;2022-08-19T06:06:12;28.47;;;15.50;;
18449;SDS011;9354;50.194;7.690;2022-08-19T06:08:42;26.03;;;15.20;;
18449;SDS011;9354;50.194;7.690;2022-08-19T06:11:16;23.23;;;15.53;;
18449;SDS011;9354;50.194;7.690;2022-08-19T06:13:46;23.87;;;14.53;;
18449;SDS011;9354;50.194;7.690;2022-08-19T06:16:16;27.10;;;15.20;;
18449;SDS011;9354;50.194;7.690;2022-08-19T06:18:48;24.23;;;14.90;;
18449;SDS011;9354;50.194;7.690;2022-08-19T06:21:18;25.77;;;15.03;;
18449;SDS011;9354;50.194;7.690;2022-08-19T06:23:48;23.87;;;15.23;;
18449;SDS011;9354;50.194;7.690;2022-08-19T06:26:17;24.70;;;15.40;;
18449;SDS011;9354;50.194;7.690;2022-08-19T06:28:46;26.77;;;15.97;;
18449;SDS011;9354;50.194;7.690;2022-08-19T06:31:14;29.23;;;16.30;;
18449;SDS011;9354;50.194;7.690;2022-08-19T06:33:44;26.23;;;16.57;;
18449;SDS011;9354;50.194;7.690;2022-08-19T06:36:19;26.87;;;15.90;;
18449;SDS011;9354;50.194;7.690;2022-08-19T06:38:48;28.13;;;16.03;;
18449;SDS011;9354;50.194;7.690;2022-08-19T06:41:16;25.07;;;15.60;;
18449;SDS011;9354;50.194;7.690;2022-08-19T06:43:43;27.33;;;16.30;;
18449;SDS011;9354;50.194;7.690;2022-08-19T06:46:12;28.67;;;17.20;;
18449;SDS011;9354;50.194;7.690;2022-08-19T06:48:40;27.53;;;16.47;;
18449;SDS011;9354;50.194;7.690;2022-08-19T06:51:08;26.10;;;15.63;;
18449;SDS011;9354;50.194;7.690;2022-08-19T06:53:35;26.87;;;16.27;;
18449;SDS011;9354;50.194;7.690;2022-08-19T06:56:06;28.60;;;16.47;;
18449;SDS011;9354;50.194;7.690;2022-08-19T06:58:33;28.53;;;16.60;;
18449;SDS011;9354;50.194;7.690;2022-08-19T07:01:01;29.43;;;17.63;;
18449;SDS011;9354;50.194;7.690;2022-08-19T07:03:30;27.47;;;16.63;;
18449;SDS011;9354;50.194;7.690;2022-08-19T07:06:02;26.57;;;16.53;;
18449;SDS011;9354;50.194;7.690;2022-08-19T07:08:30;28.20;;;15.63;;
18449;SDS011;9354;50.194;7.690;2022-08-19T07:10:58;28.40;;;17.47;;
18449;SDS011;9354;50.194;7.690;2022-08-19T07:13:27;31.17;;;17.53;;
18449;SDS011;9354;50.194;7.690;2022-08-19T07:15:56;27.27;;;16.73;;
18449;SDS011;9354;50.194;7.690;2022-08-19T07:18:23;28.03;;;16.20;;
18449;SDS011;9354;50.194;7.690;2022-08-19T07:20:51;29.80;;;18.27;;
18449;SDS011;9354;50.194;7.690;2022-08-19T07:23:29;26.73;;;16.57;;
18449;SDS011;9354;50.194;7.690;2022-08-19T07:25:57;27.17;;;17.00;;
18449;SDS011;9354;50.194;7.690;2022-08-19T07:28:24;27.33;;;16.53;;
18449;SDS011;9354;50.194;7.690;2022-08-19T07:30:53;29.33;;;17.00;;
18449;SDS011;9354;50.194;7.690;2022-08-19T07:33:20;30.27;;;17.37;;
18449;SDS011;9354;50.194;7.690;2022-08-19T07:35:48;26.70;;;15.27;;
18449;SDS011;9354;50.194;7.690;2022-08-19T07:38:15;30.37;;;15.80;;
18449;SDS011;9354;50.194;7.690;2022-08-19T07:40:43;25.93;;;16.10;;
18449;SDS011;9354;50.194;7.690;2022-08-19T07:43:11;26.63;;;16.00;;
18449;SDS011;9354;50.194;7.690;2022-08-19T07:45:39;30.03;;;17.20;;
18449;SDS011;9354;50.194;7.690;2022-08-19T07:48:09;29.17;;;17.70;;
18449;SDS011;9354;50.194;7.690;2022-08-19T07:50:36;30.70;;;17.20;;
18449;SDS011;9354;50.194;7.690;2022-08-19T07:53:04;29.93;;;17.43;;
18449;SDS011;9354;50.194;7.690;2022-08-19T07:55:31;31.70;;;17.87;;
18449;SDS011;9354;50.194;7.690;2022-08-19T07:58:01;31.10;;;17.23;;
18449;SDS011;9354;50.194;7.690;2022-08-19T08:00:30;34.07;;;17.63;;
18449;SDS011;9354;50.194;7.690;2022-08-19T08:02:58;29.00;;;16.53;;
18449;SDS011;9354;50.194;7.690;2022-08-19T08:05:28;26.90;;;16.07;;
18449;SDS011;9354;50.194;7.690;2022-08-19T08:08:13;29.23;;;15.87;;
18449;SDS011;9354;50.194;7.690;2022-08-19T08:11:04;27.20;;;16.63;;
18449;SDS011;9354;50.194;7.690;2022-08-19T08:13:32;29.97;;;17.43;;
18449;SDS011;9354;50.194;7.690;2022-08-19T08:16:01;26.13;;;14.67;;
18449;SDS011;9354;50.194;7.690;2022-08-19T08:18:29;26.30;;;15.03;;
18449;SDS011;9354;50.194;7.690;2022-08-19T08:20:58;31.20;;;17.90;;
18449;SDS011;9354;50.194;7.690;2022-08-19T08:23:25;28.37;;;16.93;;
18449;SDS011;9354;50.194;7.690;2022-08-19T08:25:56;30.73;;;17.47;;
18449;SDS011;9354;50.194;7.690;2022-08-19T08:28:24;39.27;;;18.77;;
18449;SDS011;9354;50.194;7.690;2022-08-19T08:30:55;24.50;;;14.73;;
18449;SDS011;9354;50.194;7.690;2022-08-19T08:33:25;26.60;;;16.57;;
18449;SDS011;9354;50.194;7.690;2022-08-19T08:35:54;31.10;;;15.77;;
18449;SDS011;9354;50.194;7.690;2022-08-19T08:38:22;28.53;;;16.93;;
18449;SDS011;9354;50.194;7.690;2022-08-19T08:40:50;28.63;;;17.07;;
18449;SDS011;9354;50.194;7.690;2022-08-19T08:43:26;32.40;;;17.90;;
18449;SDS011;9354;50.194;7.690;2022-08-19T08:45:58;30.30;;;17.57;;
18449;SDS011;9354;50.194;7.690;2022-08-19T08:48:32;32.80;;;18.47;;
18449;SDS011;9354;50.194;7.690;2022-08-19T08:51:05;35.37;;;18.83;;
18449;SDS011;9354;50.194;7.690;2022-08-19T08:53:37;34.27;;;20.03;;
18449;SDS011;9354;50.194;7.690;2022-08-19T08:56:06;35.37;;;20.63;;
18449;SDS011;9354;50.194;7.690;2022-08-19T08:58:41;34.13;;;19.47;;
18449;SDS011;9354;50.194;7.690;2022-08-19T09:01:14;32.00;;;19.63;;
18449;SDS011;9354;50.194;7.690;2022-08-19T09:03:43;29.97;;;17.60;;
18449;SDS011;9354;50.194;7.690;2022-08-19T09:06:12;31.87;;;18.50;;
18449;SDS011;9354;50.194;7.690;2022-08-19T09:08:47;29.80;;;16.47;;
18449;SDS011;9354;50.194;7.690;2022-08-19T09:11:23;23.73;;;15.20;;
18449;SDS011;9354;50.194;7.690;2022-08-19T09:14:02;29.10;;;15.60;;
18449;SDS011;9354;50.194;7.690;2022-08-19T09:16:37;20.43;;;12.67;;
18449;SDS011;9354;50.194;7.690;2022-08-19T09:19:07;22.53;;;13.37;;
18449;SDS011;9354;50.194;7.690;2022-08-19T09:21:36;25.93;;;14.33;;
18449;SDS011;9354;50.194;7.690;2022-08-19T09:24:06;19.97;;;12.77;;
18449;SDS011;9354;50.194;7.690;2022-08-19T09:26:33;20.97;;;12.07;;
18449;SDS011;9354;50.194;7.690;2022-08-19T09:29:01;21.43;;;13.43;;
18449;SDS011;9354;50.194;7.690;2022-08-19T09:31:30;19.87;;;12.47;;
18449;SDS011;9354;50.194;7.690;2022-08-19T09:33:58;23.43;;;14.23;;
18449;SDS011;9354;50.194;7.690;2022-08-19T09:36:26;18.40;;;11.13;;
18449;SDS011;9354;50.194;7.690;2022-08-19T09:38:58;21.27;;;11.07;;
18449;SDS011;9354;50.194;7.690;2022-08-19T09:41:28;16.60;;;11.43;;
18449;SDS011;9354;50.194;7.690;2022-08-19T09:43:56;18.13;;;11.10;;
18449;SDS011;9354;50.194;7.690;2022-08-19T09:46:24;16.20;;;11.43;;
18449;SDS011;9354;50.194;7.690;2022-08-19T09:48:53;19.30;;;10.67;;
18449;SDS011;9354;50.194;7.690;2022-08-19T09:51:23;21.87;;;10.50;;
18449;SDS011;9354;50.194;7.690;2022-08-19T09:53:53;19.03;;;10.77;;
18449;SDS011;9354;50.194;7.690;2022-08-19T09:56:24;18.70;;;9.87;;
18449;SDS011;9354;50.194;7.690;2022-08-19T09:58:53;18.47;;;10.37;;
18449;SDS011;9354;50.194;7.690;2022-08-19T10:01:22;17.57;;;9.57;;
18449;SDS011;9354;50.194;7.690;2022-08-19T10:03:52;16.63;;;9.83;;
18449;SDS011;9354;50.194;7.690;2022-08-19T10:06:21;15.87;;;10.07;;
18449;SDS011;9354;50.194;7.690;2022-08-19T10:08:51;14.20;;;9.57;;
18449;SDS011;9354;50.194;7.690;2022-08-19T10:11:19;14.77;;;10.57;;
18449;SDS011;9354;50.194;7.690;2022-08-19T10:13:47;18.40;;;10.73;;
18449;SDS011;9354;50.194;7.690;2022-08-19T10:16:17;15.87;;;9.90;;
18449;SDS011;9354;50.194;7.690;2022-08-19T10:18:48;13.00;;;8.93;;
18449;SDS011;9354;50.194;7.690;2022-08-19T10:21:16;15.87;;;9.47;;
18449;SDS011;9354;50.194;7.690;2022-08-19T10:23:46;17.50;;;10.10;;
18449;SDS011;9354;50.194;7.690;2022-08-19T10:26:20;20.40;;;10.53;;
18449;SDS011;9354;50.194;7.690;2022-08-19T10:28:49;12.47;;;8.43;;
18449;SDS011;9354;50.194;7.690;2022-08-19T10:31:19;14.43;;;10.17;;
18449;SDS011;9354;50.194;7.690;2022-08-19T10:33:49;15.03;;;8.53;;
18449;SDS011;9354;50.194;7.690;2022-08-19T10:36:23;12.77;;;8.00;;
18449;SDS011;9354;50.194;7.690;2022-08-19T10:38:53;11.03;;;8.07;;
18449;SDS011;9354;50.194;7.690;2022-08-19T10:41:24;15.27;;;8.23;;
18449;SDS011;9354;50.194;7.690;2022-08-19T10:43:54;13.77;;;7.67;;
18449;SDS011;9354;50.194;7.690;2022-08-19T10:46:25;14.37;;;8.60;;
18449;SDS011;9354;50.194;7.690;2022-08-19T10:48:54;11.23;;;7.23;;
18449;SDS011;9354;50.194;7.690;2022-08-19T10:51:22;10.63;;;6.57;;
18449;SDS011;9354;50.194;7.690;2022-08-19T10:54:06;12.97;;;8.10;;
18449;SDS011;9354;50.194;7.690;2022-08-19T10:56:34;12.77;;;7.30;;
18449;SDS011;9354;50.194;7.690;2022-08-19T10:59:19;10.17;;;6.80;;
18449;SDS011;9354;50.194;7.690;2022-08-19T11:01:53;8.77;;;6.50;;
18449;SDS011;9354;50.194;7.690;2022-08-19T11:04:21;10.17;;;6.30;;
18449;SDS011;9354;50.194;7.690;2022-08-19T11:06:49;8.90;;;6.27;;
18449;SDS011;9354;50.194;7.690;2022-08-19T11:09:17;9.73;;;6.53;;
18449;SDS011;9354;50.194;7.690;2022-08-19T11:11:46;9.07;;;6.30;;
18449;SDS011;9354;50.194;7.690;2022-08-19T11:14:14;9.07;;;6.17;;
18449;SDS011;9354;50.194;7.690;2022-08-19T11:16:46;8.63;;;5.50;;
18449;SDS011;9354;50.194;7.690;2022-08-19T11:19:15;8.63;;;5.67;;
18449;SDS011;9354;50.194;7.690;2022-08-19T11:21:45;10.03;;;6.67;;
18449;SDS011;9354;50.194;7.690;2022-08-19T11:24:15;12.38;;;7.53;;
18449;SDS011;9354;50.194;7.690;2022-08-19T11:26:43;7.45;;;5.22;;
18449;SDS011;9354;50.194;7.690;2022-08-19T11:29:12;8.05;;;5.50;;
18449;SDS011;9354;50.194;7.690;2022-08-19T11:31:40;8.82;;;5.47;;
18449;SDS011;9354;50.194;7.690;2022-08-19T11:34:11;7.72;;;5.30;;
18449;SDS011;9354;50.194;7.690;2022-08-19T11:36:41;10.57;;;6.63;;
18449;SDS011;9354;50.194;7.690;2022-08-19T11:39:11;7.95;;;6.07;;
18449;SDS011;9354;50.194;7.690;2022-08-19T11:41:40;8.70;;;5.22;;
18449;SDS011;9354;50.194;7.690;2022-08-19T11:44:08;7.40;;;5.10;;
18449;SDS011;9354;50.194;7.690;2022-08-19T11:46:36;10.10;;;5.57;;
18449;SDS011;9354;50.194;7.690;2022-08-19T11:49:05;10.38;;;6.72;;
18449;SDS011;9354;50.194;7.690;2022-08-19T11:51:34;11.57;;;5.47;;
18449;SDS011;9354;50.194;7.690;2022-08-19T11:54:04;10.10;;;6.78;;
18449;SDS011;9354;50.194;7.690;2022-08-19T11:56:32;11.30;;;6.55;;
18449;SDS011;9354;50.194;7.690;2022-08-19T11:59:00;12.63;;;5.55;;
18449;SDS011;9354;50.194;7.690;2022-08-19T12:01:28;13.57;;;6.30;;
18449;SDS011;9354;50.194;7.690;2022-08-19T12:03:57;10.15;;;6.18;;
18449;SDS011;9354;50.194;7.690;2022-08-19T12:06:25;7.43;;;6.00;;
18449;SDS011;9354;50.194;7.690;2022-08-19T12:08:55;10.32;;;6.88;;
18449;SDS011;9354;50.194;7.690;2022-08-19T12:11:25;14.00;;;6.63;;
18449;SDS011;9354;50.194;7.690;2022-08-19T12:13:53;9.80;;;5.80;;
18449;SDS011;9354;50.194;7.690;2022-08-19T12:16:22;8.98;;;5.85;;
18449;SDS011;9354;50.194;7.690;2022-08-19T12:18:51;8.25;;;6.35;;
18449;SDS011;9354;50.194;7.690;2022-08-19T12:21:19;7.53;;;5.65;;
18449;SDS011;9354;50.194;7.690;2022-08-19T12:23:49;10.40;;;5.88;;
18449;SDS011;9354;50.194;7.690;2022-08-19T12:26:17;12.53;;;6.50;;
18449;SDS011;9354;50.194;7.690;2022-08-19T12:28:47;9.27;;;6.13;;
18449;SDS011;9354;50.194;7.690;2022-08-19T12:31:14;8.57;;;5.80;;
18449;SDS011;9354;50.194;7.690;2022-08-19T12:33:42;9.17;;;5.60;;
18449;SDS011;9354;50.194;7.690;2022-08-19T12:36:10;7.63;;;5.17;;
18449;SDS011;9354;50.194;7.690;2022-08-19T12:38:40;9.70;;;5.78;;
18449;SDS011;9354;50.194;7.690;2022-08-19T12:41:09;6.82;;;5.40;;
18449;SDS011;9354;50.194;7.690;2022-08-19T12:43:38;8.80;;;5.05;;
18449;SDS011;9354;50.194;7.690;2022-08-19T12:46:08;11.07;;;5.88;;
18449;SDS011;9354;50.194;7.690;2022-08-19T12:48:37;10.87;;;5.87;;
18449;SDS011;9354;50.194;7.690;2022-08-19T12:51:08;6.30;;;5.15;;
18449;SDS011;9354;50.194;7.690;2022-08-19T12:53:37;8.23;;;5.88;;
18449;SDS011;9354;50.194;7.690;2022-08-19T12:56:06;11.10;;;5.53;;
18449;SDS011;9354;50.194;7.690;2022-08-19T12:58:33;8.50;;;5.93;;
18449;SDS011;9354;50.194;7.690;2022-08-19T13:01:05;7.63;;;5.50;;
18449;SDS011;9354;50.194;7.690;2022-08-19T13:03:35;7.78;;;5.90;;
18449;SDS011;9354;50.194;7.690;2022-08-19T13:06:03;9.43;;;6.28;;
18449;SDS011;9354;50.194;7.690;2022-08-19T13:08:31;6.57;;;5.30;;
18449;SDS011;9354;50.194;7.690;2022-08-19T13:11:06;10.18;;;6.88;;
18449;SDS011;9354;50.194;7.690;2022-08-19T13:13:34;7.68;;;5.70;;
18449;SDS011;9354;50.194;7.690;2022-08-19T13:16:01;9.15;;;6.20;;
18449;SDS011;9354;50.194;7.690;2022-08-19T13:18:29;8.55;;;5.78;;
18449;SDS011;9354;50.194;7.690;2022-08-19T13:21:01;7.57;;;6.10;;
18449;SDS011;9354;50.194;7.690;2022-08-19T13:23:29;7.07;;;5.90;;
18449;SDS011;9354;50.194;7.690;2022-08-19T13:25:57;10.27;;;6.05;;
18449;SDS011;9354;50.194;7.690;2022-08-19T13:28:24;7.95;;;5.53;;
18449;SDS011;9354;50.194;7.690;2022-08-19T13:31:14;9.93;;;6.40;;
18449;SDS011;9354;50.194;7.690;2022-08-19T13:33:59;8.68;;;6.28;;
18449;SDS011;9354;50.194;7.690;2022-08-19T13:36:29;7.32;;;5.82;;
18449;SDS011;9354;50.194;7.690;2022-08-19T13:38:56;14.05;;;5.82;;
18449;SDS011;9354;50.194;7.690;2022-08-19T13:41:24;7.40;;;6.00;;
18449;SDS011;9354;50.194;7.690;2022-08-19T13:43:52;7.93;;;5.85;;
18449;SDS011;9354;50.194;7.690;2022-08-19T13:46:20;9.57;;;6.13;;
18449;SDS011;9354;50.194;7.690;2022-08-19T13:48:47;10.10;;;6.43;;
18449;SDS011;9354;50.194;7.690;2022-08-19T13:51:15;7.45;;;5.15;;
18449;SDS011;9354;50.194;7.690;2022-08-19T13:53:45;9.90;;;5.78;;
18449;SDS011;9354;50.194;7.690;2022-08-19T13:56:13;10.18;;;5.65;;
18449;SDS011;9354;50.194;7.690;2022-08-19T13:58:41;18.10;;;6.05;;
18449;SDS011;9354;50.194;7.690;2022-08-19T14:01:09;11.23;;;6.28;;
18449;SDS011;9354;50.194;7.690;2022-08-19T14:03:37;8.73;;;5.70;;
18449;SDS011;9354;50.194;7.690;2022-08-19T14:06:05;7.50;;;5.82;;
18449;SDS011;9354;50.194;7.690;2022-08-19T14:08:32;12.02;;;6.60;;
18449;SDS011;9354;50.194;7.690;2022-08-19T14:11:01;9.50;;;5.95;;
18449;SDS011;9354;50.194;7.690;2022-08-19T14:13:29;10.52;;;5.45;;
18449;SDS011;9354;50.194;7.690;2022-08-19T14:15:59;7.30;;;5.47;;
18449;SDS011;9354;50.194;7.690;2022-08-19T14:18:26;8.13;;;6.22;;
18449;SDS011;9354;50.194;7.690;2022-08-19T14:20:54;9.77;;;5.78;;
18449;SDS011;9354;50.194;7.690;2022-08-19T14:23:22;8.68;;;5.95;;
18449;SDS011;9354;50.194;7.690;2022-08-19T14:25:49;6.35;;;5.32;;
18449;SDS011;9354;50.194;7.690;2022-08-19T14:28:18;7.05;;;5.72;;
18449;SDS011;9354;50.194;7.690;2022-08-19T14:30:45;9.25;;;5.95;;
18449;SDS011;9354;50.194;7.690;2022-08-19T14:33:13;8.52;;;5.72;;
18449;SDS011;9354;50.194;7.690;2022-08-19T14:35:40;9.25;;;6.38;;
18449;SDS011;9354;50.194;7.690;2022-08-19T14:38:14;8.18;;;5.40;;
18449;SDS011;9354;50.194;7.690;2022-08-19T14:40:43;7.63;;;5.90;;
18449;SDS011;9354;50.194;7.690;2022-08-19T14:43:11;10.30;;;5.57;;
18449;SDS011;9354;50.194;7.690;2022-08-19T14:45:40;9.38;;;5.43;;
18449;SDS011;9354;50.194;7.690;2022-08-19T14:48:07;8.60;;;5.30;;
18449;SDS011;9354;50.194;7.690;2022-08-19T14:50:35;8.15;;;5.18;;
18449;SDS011;9354;50.194;7.690;2022-08-19T14:53:04;6.53;;;5.10;;